| time (UTC) | temp C | wind direction | speed KPH | gust KPH | rain 1hr cm | rain 24hr cm | rain mn cm | humidity % | barometer mb |
| 20260503223846 | 30 | 332 | 1.6 | 4.8 | 0.00 | 0.00 | 0.00 | 34 | 1007.5 |
| 20260503223349 | 30 | 314 | 1.6 | 3.2 | 0.00 | 0.00 | 0.00 | 35 | 1007.6 |
| 20260503222847 | 30 | 281 | 0.0 | 3.2 | 0.00 | 0.00 | 0.00 | 30 | 1007.6 |
| 20260503222348 | 30 | 316 | 0.0 | 6.4 | 0.00 | 0.00 | 0.00 | 34 | 1007.8 |
| 20260503221827 | 30 | 273 | 0.0 | 6.4 | 0.00 | 0.00 | 0.00 | 35 | 1007.8 |
| 20260503221330 | 30 | 329 | 0.0 | 4.8 | 0.00 | 0.00 | 0.00 | 35 | 1007.9 |
| 20260503220834 | 30 | 322 | 3.2 | 4.8 | 0.00 | 0.00 | 0.00 | 33 | 1008.0 |
| 20260503220338 | 30 | 301 | 0.0 | 4.8 | 0.00 | 0.00 | 0.00 | 33 | 1008.0 |
| 20260503215836 | 31 | 147 | 0.0 | 4.8 | 0.00 | 0.00 | 0.00 | 28 | 1008.2 |
| 20260503215339 | 31 | 323 | 1.6 | 3.2 | 0.00 | 0.00 | 0.00 | 32 | 1008.2 |
| 20260503214840 | 31 | 323 | 0.0 | 6.4 | 0.00 | 0.00 | 0.00 | 30 | 1008.3 |
| 20260503214339 | 31 | 286 | 3.2 | 6.4 | 0.00 | 0.00 | 0.00 | 30 | 1008.3 |
| 20260503213839 | 32 | 37 | 1.6 | 3.2 | 0.00 | 0.00 | 0.00 | 32 | 1008.4 |
| 20260503213339 | 32 | 38 | 0.0 | 3.2 | 0.00 | 0.00 | 0.00 | 29 | 1008.5 |
| 20260503212841 | 32 | 274 | 0.0 | 3.2 | 0.00 | 0.00 | 0.00 | 29 | 1008.5 |
| 20260503212342 | 32 | 319 | 0.0 | 3.2 | 0.00 | 0.00 | 0.00 | 28 | 1008.6 |
| 20260503211841 | 32 | 318 | 1.6 | 3.2 | 0.00 | 0.00 | 0.00 | 31 | 1008.6 |
| 20260503211340 | 32 | 316 | 1.6 | 3.2 | 0.00 | 0.00 | 0.00 | 31 | 1008.7 |
| 20260503210841 | 32 | 328 | 0.0 | 3.2 | 0.00 | 0.00 | 0.00 | 31 | 1008.7 |
| 20260503210341 | 31 | 308 | 1.6 | 3.2 | 0.00 | 0.00 | 0.00 | 33 | 1008.8 |
| 20260503205843 | 31 | 267 | 1.6 | 3.2 | 0.00 | 0.00 | 0.00 | 32 | 1008.8 |
| 20260503205343 | 32 | 304 | 0.0 | 3.2 | 0.00 | 0.00 | 0.00 | 33 | 1009.0 |
| 20260503204843 | 32 | 324 | 0.0 | 3.2 | 0.00 | 0.00 | 0.00 | 33 | 1009.0 |
| 20260503204343 | 32 | 323 | 1.6 | 3.2 | 0.00 | 0.00 | 0.00 | 35 | 1009.0 |
| 20260503203904 | 32 | 308 | 0.0 | 3.2 | 0.00 | 0.00 | 0.00 | 33 | 1009.1 |
| 20260503203343 | 31 | 318 | 1.6 | 3.2 | 0.00 | 0.00 | 0.00 | 33 | 1009.2 |
| 20260503202902 | 31 | 315 | 0.0 | 3.2 | 0.00 | 0.00 | 0.00 | 34 | 1009.3 |
| 20260503202400 | 31 | 315 | 0.0 | 3.2 | 0.00 | 0.00 | 0.00 | 38 | 1009.3 |
| 20260503201839 | 31 | 315 | 0.0 | 3.2 | 0.00 | 0.00 | 0.00 | 37 | 1009.4 |
| 20260503201340 | 31 | 311 | 1.6 | 3.2 | 0.00 | 0.00 | 0.00 | 39 | 1009.5 |
| 20260503200841 | 30 | 330 | 1.6 | 4.8 | 0.00 | 0.00 | 0.00 | 39 | 1009.6 |
| 20260503200343 | 30 | 328 | 1.6 | 4.8 | 0.00 | 0.00 | 0.00 | 40 | 1009.7 |
| 20260503195842 | 30 | 309 | 1.6 | 3.2 | 0.00 | 0.00 | 0.00 | 40 | 1009.7 |
| 20260503195327 | 30 | 310 | 1.6 | 3.2 | 0.00 | 0.00 | 0.00 | 41 | 1009.8 |
| 20260503194830 | 29 | 313 | 1.6 | 3.2 | 0.00 | 0.00 | 0.00 | 41 | 1009.9 |
| 20260503194334 | 29 | 264 | 1.6 | 3.2 | 0.00 | 0.00 | 0.00 | 40 | 1009.9 |
| 20260503193839 | 29 | 313 | 0.0 | 3.2 | 0.00 | 0.00 | 0.00 | 40 | 1010.0 |
| 20260503193401 | 29 | 313 | 1.6 | 3.2 | 0.00 | 0.00 | 0.00 | 41 | 1010.1 |
| 20260503192901 | 29 | 320 | 0.0 | 3.2 | 0.00 | 0.00 | 0.00 | 40 | 1010.0 |
| 20260503192345 | 28 | 328 | 1.6 | 3.2 | 0.00 | 0.00 | 0.00 | 42 | 1010.0 |
| 20260503191846 | 28 | 317 | 1.6 | 3.2 | 0.00 | 0.00 | 0.00 | 43 | 1010.1 |
| 20260503191346 | 28 | 199 | 0.0 | 3.2 | 0.00 | 0.00 | 0.00 | 49 | 1010.2 |
| 20260503190845 | 27 | 288 | 0.0 | 3.2 | 0.00 | 0.00 | 0.00 | 44 | 1010.2 |
| 20260503190346 | 27 | 255 | 1.6 | 3.2 | 0.00 | 0.00 | 0.00 | 43 | 1010.3 |
| 20260503185847 | 27 | 257 | 1.6 | 4.8 | 0.00 | 0.00 | 0.00 | 46 | 1010.4 |
| 20260503185327 | 27 | 313 | 1.6 | 3.2 | 0.00 | 0.00 | 0.00 | 47 | 1010.4 |
| 20260503184829 | 27 | 313 | 0.0 | 3.2 | 0.00 | 0.00 | 0.00 | 47 | 1010.5 |
| 20260503184349 | 27 | 313 | 0.0 | 3.2 | 0.00 | 0.00 | 0.00 | 48 | 1010.6 |
| 20260503183828 | 27 | 313 | 0.0 | 3.2 | 0.00 | 0.00 | 0.00 | 49 | 1010.7 |
| 20260503183329 | 26 | 313 | 0.0 | 1.6 | 0.00 | 0.00 | 0.00 | 52 | 1010.7 |
| 20260503182829 | 26 | 307 | 0.0 | 3.2 | 0.00 | 0.00 | 0.00 | 50 | 1010.8 |
| 20260503182333 | 26 | 307 | 0.0 | 3.2 | 0.00 | 0.00 | 0.00 | 52 | 1010.9 |
| 20260503181834 | 26 | 305 | 1.6 | 3.2 | 0.00 | 0.00 | 0.00 | 52 | 1010.9 |
| 20260503181336 | 25 | 290 | 0.0 | 3.2 | 0.00 | 0.00 | 0.00 | 54 | 1011.0 |
| 20260503180838 | 25 | 274 | 1.6 | 3.2 | 0.00 | 0.00 | 0.00 | 52 | 1011.0 |
| 20260503180342 | 23 | 276 | 0.0 | 3.2 | 0.00 | 0.00 | 0.00 | 55 | 1011.0 |
| 20260503175840 | 23 | 262 | 1.6 | 3.2 | 0.00 | 0.00 | 0.00 | 51 | 1011.1 |
| 20260503175404 | 24 | 284 | 0.0 | 3.2 | 0.00 | 0.00 | 0.00 | 58 | 1011.2 |
| 20260503174846 | 23 | 298 | 1.6 | 1.6 | 0.00 | 0.00 | 0.00 | 56 | 1011.2 |
| 20260503174344 | 23 | 300 | 1.6 | 3.2 | 0.00 | 0.00 | 0.00 | 59 | 1011.2 |
| 20260503173903 | 23 | 14 | 0.0 | 3.2 | 0.00 | 0.00 | 0.00 | 57 | 1011.2 |
| 20260503173342 | 22 | 9 | 0.0 | 3.2 | 0.00 | 0.00 | 0.00 | 61 | 1011.3 |
| 20260503172842 | 22 | 333 | 0.0 | 3.2 | 0.00 | 0.00 | 0.00 | 59 | 1011.4 |
| 20260503172343 | 22 | 20 | 0.0 | 3.2 | 0.00 | 0.00 | 0.00 | 61 | 1011.4 |
| 20260503171827 | 22 | 290 | 1.6 | 1.6 | 0.00 | 0.00 | 0.00 | 61 | 1011.5 |
| 20260503171330 | 21 | 278 | 1.6 | 3.2 | 0.00 | 0.00 | 0.00 | 61 | 1011.4 |
| 20260503170833 | 21 | 278 | 1.6 | 3.2 | 0.00 | 0.00 | 0.00 | 62 | 1011.4 |
| 20260503170333 | 21 | 349 | 0.0 | 3.2 | 0.00 | 0.00 | 0.00 | 65 | 1011.6 |
| 20260503150835 | 15 | 83 | 0.0 | 0.0 | 0.00 | 0.00 | 0.00 | 85 | 1012.0 |
| 20260503150338 | 14 | 83 | 0.0 | 0.0 | 0.00 | 0.00 | 0.00 | 86 | 1012.0 |
| 20260503131335 | 10 | 117 | 0.0 | 3.2 | 0.00 | 0.00 | 0.00 | 91 | 1011.7 |
| 20260503130836 | 10 | 118 | 0.0 | 3.2 | 0.00 | 0.00 | 0.00 | 91 | 1011.6 |
| 20260503130338 | 10 | 143 | 0.0 | 3.2 | 0.00 | 0.00 | 0.00 | 91 | 1011.6 |
| 20260503110827 | 11 | 137 | 0.0 | 3.2 | 0.00 | 0.00 | 0.00 | 90 | 1011.9 |
| 20260503110408 | 11 | 129 | 0.0 | 3.2 | 0.00 | 0.00 | 0.00 | 90 | 1011.9 |
| 20260503090348 | 12 | 154 | 0.0 | 1.6 | 0.00 | 0.03 | 0.00 | 86 | 1012.1 |
| 20260503081340 | 13 | 154 | 0.0 | 0.0 | 0.00 | 0.03 | 0.00 | 85 | 1012.0 |
| 20260503080824 | 13 | 154 | 0.0 | 0.0 | 0.00 | 0.03 | 0.00 | 83 | 1012.0 |
| 20260503080332 | 13 | 154 | 0.0 | 0.0 | 0.00 | 0.03 | 0.00 | 84 | 1012.0 |
| 20260503072841 | 15 | 154 | 0.0 | 0.0 | 0.00 | 0.03 | 0.00 | 81 | 1012.2 |
| 20260503072342 | 15 | 154 | 0.0 | 0.0 | 0.00 | 0.03 | 0.00 | 81 | 1012.2 |
| 20260503071845 | 15 | 154 | 0.0 | 3.2 | 0.00 | 0.03 | 0.00 | 81 | 1012.1 |
| 20260503071344 | 15 | 154 | 0.0 | 1.6 | 0.00 | 0.03 | 0.00 | 81 | 1012.1 |
| 20260503070829 | 15 | 168 | 1.6 | 3.2 | 0.00 | 0.03 | 0.00 | 80 | 1012.1 |
| 20260503070333 | 15 | 176 | 0.0 | 3.2 | 0.00 | 0.03 | 0.00 | 80 | 1012.2 |
| 20260503060336 | 16 | 130 | 0.0 | 3.2 | 0.00 | 0.03 | 0.03 | 78 | 1011.8 |
| 20260503054842 | 16 | 130 | 0.0 | 0.0 | 0.00 | 0.03 | 0.03 | 78 | 1011.9 |
| 20260503054342 | 16 | 130 | 0.0 | 0.0 | 0.00 | 0.03 | 0.03 | 79 | 1012.0 |
| 20260503053842 | 16 | 130 | 0.0 | 0.0 | 0.00 | 0.03 | 0.03 | 79 | 1012.1 |
| 20260503053345 | 16 | 130 | 0.0 | 0.0 | 0.00 | 0.03 | 0.03 | 78 | 1012.2 |
| 20260503052847 | 16 | 130 | 0.0 | 0.0 | 0.00 | 0.03 | 0.03 | 78 | 1012.2 |
| 20260503052348 | 16 | 130 | 0.0 | 3.2 | 0.00 | 0.03 | 0.03 | 78 | 1012.3 |
| 20260503051828 | 16 | 130 | 0.0 | 0.0 | 0.00 | 0.03 | 0.03 | 76 | 1012.4 |
| 20260503051335 | 16 | 130 | 0.0 | 0.0 | 0.00 | 0.03 | 0.03 | 77 | 1012.5 |
| 20260503050857 | 16 | 130 | 0.0 | 0.0 | 0.00 | 0.03 | 0.03 | 77 | 1012.4 |
| 20260503050338 | 16 | 130 | 0.0 | 0.0 | 0.00 | 0.03 | 0.03 | 77 | 1012.4 |
| 20260503045856 | 16 | 130 | 0.0 | 3.2 | 0.00 | 0.03 | 0.03 | 76 | 1012.5 |
| 20260503045337 | 17 | 130 | 0.0 | 3.2 | 0.00 | 0.03 | 0.03 | 73 | 1012.4 |
| 20260503044844 | 17 | 130 | 0.0 | 3.2 | 0.00 | 0.03 | 0.03 | 73 | 1012.4 |
| 20260503044345 | 17 | 84 | 0.0 | 3.2 | 0.00 | 0.03 | 0.03 | 74 | 1012.5 |
| 20260503043845 | 16 | 79 | 0.0 | 3.2 | 0.00 | 0.03 | 0.03 | 75 | 1012.3 |
| 20260503043345 | 17 | 79 | 0.0 | 3.2 | 0.00 | 0.03 | 0.03 | 75 | 1012.3 |
| 20260503042847 | 17 | 79 | 0.0 | 3.2 | 0.00 | 0.03 | 0.03 | 73 | 1012.4 |
| 20260503042346 | 17 | 79 | 0.0 | 0.0 | 0.00 | 0.03 | 0.03 | 73 | 1012.4 |
| 20260503041846 | 17 | 79 | 0.0 | 3.2 | 0.00 | 0.03 | 0.03 | 74 | 1012.4 |
| 20260503041345 | 17 | 79 | 0.0 | 3.2 | 0.00 | 0.03 | 0.03 | 73 | 1012.4 |
| 20260503040846 | 17 | 79 | 0.0 | 3.2 | 0.00 | 0.03 | 0.03 | 73 | 1012.4 |
| 20260503040349 | 17 | 79 | 0.0 | 3.2 | 0.00 | 0.03 | 0.03 | 72 | 1012.4 |
| 20260503035847 | 17 | 79 | 1.6 | 3.2 | 0.00 | 0.03 | 0.03 | 70 | 1012.4 |
| 20260503035347 | 17 | 114 | 0.0 | 3.2 | 0.00 | 0.03 | 0.03 | 71 | 1012.3 |
| 20260503034850 | 18 | 119 | 1.6 | 3.2 | 0.00 | 0.03 | 0.03 | 69 | 1012.2 |
| 20260503034336 | 18 | 147 | 0.0 | 3.2 | 0.00 | 0.03 | 0.03 | 70 | 1012.2 |
| 20260503033836 | 18 | 81 | 1.6 | 3.2 | 0.00 | 0.03 | 0.03 | 70 | 1012.2 |
| 20260503033342 | 18 | 178 | 1.6 | 4.8 | 0.00 | 0.03 | 0.03 | 69 | 1012.1 |
| 20260503032841 | 18 | 164 | 1.6 | 6.4 | 0.00 | 0.03 | 0.03 | 69 | 1012.1 |
| 20260503032342 | 18 | 157 | 0.0 | 6.4 | 0.00 | 0.03 | 0.03 | 68 | 1012.0 |
| 20260503031847 | 18 | 156 | 3.2 | 6.4 | 0.00 | 0.03 | 0.03 | 68 | 1012.0 |
| 20260503031347 | 18 | 145 | 3.2 | 11.3 | 0.00 | 0.03 | 0.03 | 68 | 1012.0 |
| 20260503030828 | 18 | 134 | 4.8 | 11.3 | 0.00 | 0.03 | 0.03 | 67 | 1011.8 |
| 20260503030357 | 19 | 176 | 3.2 | 11.3 | 0.00 | 0.03 | 0.03 | 66 | 1011.8 |
| 20260503025835 | 19 | 165 | 4.8 | 11.3 | 0.00 | 0.03 | 0.03 | 65 | 1011.7 |
| 20260503025336 | 20 | 134 | 4.8 | 12.9 | 0.00 | 0.03 | 0.03 | 64 | 1011.7 |
| 20260503024837 | 20 | 104 | 3.2 | 11.3 | 0.00 | 0.03 | 0.03 | 63 | 1011.6 |
| 20260503024338 | 21 | 169 | 4.8 | 16.1 | 0.00 | 0.03 | 0.03 | 61 | 1011.4 |
| 20260503023840 | 21 | 170 | 6.4 | 16.1 | 0.00 | 0.03 | 0.03 | 60 | 1011.3 |
| 20260503023401 | 21 | 160 | 3.2 | 14.5 | 0.00 | 0.03 | 0.03 | 60 | 1011.2 |
| 20260503022902 | 21 | 176 | 4.8 | 14.5 | 0.00 | 0.03 | 0.03 | 59 | 1011.3 |
| 20260503022339 | 21 | 178 | 4.8 | 12.9 | 0.00 | 0.03 | 0.03 | 59 | 1011.3 |
| 20260503021840 | 21 | 156 | 3.2 | 11.3 | 0.00 | 0.03 | 0.03 | 60 | 1011.1 |
| 20260503021348 | 21 | 185 | 3.2 | 11.3 | 0.00 | 0.03 | 0.03 | 59 | 1010.9 |
| 20260503020828 | 21 | 166 | 4.8 | 11.3 | 0.00 | 0.03 | 0.03 | 59 | 1010.9 |
| 20260503020336 | 22 | 149 | 6.4 | 11.3 | 0.00 | 0.03 | 0.03 | 59 | 1010.7 |
| 20260503015839 | 22 | 178 | 1.6 | 3.2 | 0.00 | 0.03 | 0.03 | 60 | 1010.7 |
| 20260503015339 | 22 | 180 | 1.6 | 3.2 | 0.00 | 0.03 | 0.03 | 59 | 1010.7 |
| 20260503014842 | 22 | 272 | 0.0 | 3.2 | 0.00 | 0.03 | 0.03 | 58 | 1010.6 |
| 20260503014342 | 22 | 272 | 0.0 | 3.2 | 0.00 | 0.03 | 0.03 | 61 | 1010.6 |
| 20260503013842 | 22 | 272 | 0.0 | 3.2 | 0.00 | 0.03 | 0.03 | 63 | 1010.5 |
| 20260503013344 | 22 | 272 | 0.0 | 3.2 | 0.00 | 0.03 | 0.03 | 61 | 1010.5 |
| 20260503012904 | 22 | 272 | 0.0 | 1.6 | 0.00 | 0.03 | 0.03 | 61 | 1010.5 |
| 20260503012346 | 22 | 272 | 0.0 | 3.2 | 0.00 | 0.03 | 0.03 | 61 | 1010.6 |
| 20260503011825 | 22 | 272 | 0.0 | 3.2 | 0.00 | 0.03 | 0.03 | 60 | 1010.6 |
| 20260503011336 | 22 | 265 | 0.0 | 3.2 | 0.00 | 0.03 | 0.03 | 61 | 1010.5 |
| 20260503010856 | 22 | 265 | 0.0 | 3.2 | 0.00 | 0.03 | 0.03 | 61 | 1010.6 |
| 20260503010345 | 22 | 265 | 0.0 | 3.2 | 0.00 | 0.03 | 0.03 | 62 | 1010.6 |
| 20260503005828 | 22 | 265 | 0.0 | 3.2 | 0.00 | 0.03 | 0.03 | 62 | 1010.6 |
| 20260503005328 | 22 | 232 | 1.6 | 3.2 | 0.00 | 0.03 | 0.03 | 61 | 1010.5 |
| 20260503004855 | 22 | 316 | 0.0 | 3.2 | 0.00 | 0.03 | 0.03 | 62 | 1010.6 |
| 20260503004334 | 22 | 316 | 0.0 | 3.2 | 0.00 | 0.03 | 0.03 | 60 | 1010.7 |
| 20260503003834 | 21 | 316 | 0.0 | 3.2 | 0.00 | 0.03 | 0.03 | 62 | 1010.7 |
| 20260503003340 | 22 | 305 | 0.0 | 3.2 | 0.00 | 0.03 | 0.03 | 61 | 1010.7 |
| 20260503002842 | 21 | 274 | 0.0 | 3.2 | 0.00 | 0.03 | 0.03 | 60 | 1010.7 |
| 20260503002342 | 22 | 272 | 0.0 | 3.2 | 0.00 | 0.03 | 0.03 | 61 | 1010.7 |
| 20260503001902 | 21 | 261 | 1.6 | 3.2 | 0.00 | 0.03 | 0.03 | 59 | 1010.7 |
| 20260503001341 | 21 | 281 | 1.6 | 3.2 | 0.00 | 0.03 | 0.03 | 61 | 1010.7 |
| 20260503000843 | 21 | 309 | 0.0 | 3.2 | 0.00 | 0.03 | 0.03 | 63 | 1010.7 |
| 20260503000332 | 21 | 288 | 1.6 | 3.2 | 0.00 | 0.03 | 0.03 | 64 | 1010.7 |
| 20260502235836 | 21 | 280 | 0.0 | 3.2 | 0.00 | 0.03 | 0.03 | 63 | 1010.8 |
| 20260502235340 | 21 | 268 | 0.0 | 4.8 | 0.00 | 0.03 | 0.03 | 65 | 1010.8 |
| 20260502234842 | 21 | 268 | 0.0 | 4.8 | 0.00 | 0.03 | 0.03 | 63 | 1010.9 |
| 20260502234342 | 20 | 299 | 1.6 | 3.2 | 0.00 | 0.03 | 0.03 | 63 | 1010.9 |
| 20260502233840 | 20 | 315 | 1.6 | 3.2 | 0.00 | 0.03 | 0.03 | 63 | 1011.0 |
| 20260502233343 | 20 | 318 | 1.6 | 3.2 | 0.00 | 0.03 | 0.03 | 64 | 1011.0 |
| 20260502232844 | 20 | 4 | 0.0 | 3.2 | 0.00 | 0.03 | 0.03 | 64 | 1011.1 |
| 20260502232346 | 20 | 307 | 1.6 | 3.2 | 0.00 | 0.03 | 0.03 | 64 | 1011.1 |
| 20260502231827 | 20 | 293 | 0.0 | 3.2 | 0.00 | 0.03 | 0.03 | 62 | 1011.2 |
| 20260502231351 | 20 | 293 | 0.0 | 3.2 | 0.00 | 0.03 | 0.03 | 63 | 1011.3 |
| 20260502230833 | 20 | 287 | 0.0 | 4.8 | 0.00 | 0.03 | 0.03 | 62 | 1011.3 |
| 20260502230334 | 20 | 270 | 1.6 | 4.8 | 0.00 | 0.03 | 0.03 | 62 | 1011.4 |
| 20260502225837 | 20 | 292 | 3.2 | 4.8 | 0.00 | 0.03 | 0.03 | 61 | 1011.5 |
| 20260502225356 | 20 | 259 | 1.6 | 3.2 | 0.00 | 0.03 | 0.03 | 61 | 1011.6 |
| 20260502224836 | 20 | 345 | 0.0 | 3.2 | 0.00 | 0.03 | 0.03 | 61 | 1011.6 |
| 20260502224336 | 20 | 284 | 0.0 | 3.2 | 0.00 | 0.03 | 0.03 | 62 | 1011.8 |